createdAt,value
2023-03-30T00:00:19.118Z,11.10
2023-03-30T00:02:50.802Z,11.10
2023-03-30T00:05:18.793Z,11.10
2023-03-30T00:07:46.015Z,11.10
2023-03-30T00:10:20.148Z,11.10
2023-03-30T00:12:51.088Z,11.10
2023-03-30T00:15:21.615Z,11.00
2023-03-30T00:17:48.636Z,11.10
2023-03-30T00:20:17.423Z,11.20
2023-03-30T00:22:45.430Z,11.20
2023-03-30T00:25:17.383Z,11.10
2023-03-30T00:27:45.092Z,11.20
2023-03-30T00:30:15.296Z,11.10
2023-03-30T00:32:43.407Z,11.00
2023-03-30T00:35:12.703Z,10.90
2023-03-30T00:37:39.781Z,10.80
2023-03-30T00:40:09.237Z,11.10
2023-03-30T00:42:37.078Z,10.90
2023-03-30T00:45:18.391Z,10.90
2023-03-30T00:47:52.182Z,10.90
2023-03-30T00:50:21.914Z,10.90
2023-03-30T00:52:52.554Z,10.90
2023-03-30T00:55:22.104Z,10.80
2023-03-30T00:57:49.555Z,10.70
2023-03-30T01:00:17.365Z,10.70
2023-03-30T01:02:55.900Z,10.50
2023-03-30T01:05:24.435Z,10.20
2023-03-30T01:07:52.232Z,10.20
2023-03-30T01:10:20.606Z,10.20
2023-03-30T01:12:48.027Z,10.30
2023-03-30T01:15:16.263Z,10.30
2023-03-30T01:18:08.819Z,10.40
2023-03-30T01:21:00.981Z,10.40
2023-03-30T01:23:47.041Z,10.40
2023-03-30T01:26:31.613Z,10.60
2023-03-30T01:29:23.896Z,10.40
2023-03-30T01:32:32.665Z,10.40
2023-03-30T01:35:05.888Z,10.50
2023-03-30T01:38:07.213Z,10.40
2023-03-30T01:41:06.560Z,10.40
2023-03-30T01:44:00.100Z,10.40
2023-03-30T01:46:30.627Z,10.40
2023-03-30T01:49:15.679Z,10.40
2023-03-30T01:51:56.749Z,10.50
2023-03-30T01:54:28.343Z,10.50
2023-03-30T01:57:15.573Z,10.40
2023-03-30T02:00:13.153Z,10.40
2023-03-30T02:02:44.910Z,10.30
2023-03-30T02:05:18.205Z,10.30
2023-03-30T02:07:56.061Z,10.40
2023-03-30T02:10:27.678Z,10.40
2023-03-30T02:12:57.084Z,10.40
2023-03-30T02:15:26.425Z,10.40
2023-03-30T02:17:53.213Z,10.40
2023-03-30T02:20:19.998Z,10.30
2023-03-30T02:22:48.319Z,10.30
2023-03-30T02:25:15.784Z,10.30
2023-03-30T02:27:42.810Z,10.30
2023-03-30T02:30:10.180Z,10.20
2023-03-30T02:32:53.161Z,10.20
2023-03-30T02:35:31.957Z,10.20
2023-03-30T02:38:34.784Z,10.20
2023-03-30T02:41:30.920Z,10.20
2023-03-30T02:44:22.130Z,10.20
2023-03-30T02:47:12.721Z,10.20
2023-03-30T02:49:46.706Z,10.20
2023-03-30T02:52:34.283Z,10.20
2023-03-30T02:55:13.612Z,10.20
2023-03-30T02:58:12.938Z,10.20
2023-03-30T03:01:03.489Z,10.10
2023-03-30T03:03:36.602Z,10.10
2023-03-30T03:06:04.929Z,10.00
2023-03-30T03:08:37.630Z,9.90
2023-03-30T03:11:04.856Z,9.90
2023-03-30T03:13:32.154Z,9.90
2023-03-30T03:15:58.923Z,9.90
2023-03-30T03:18:25.729Z,10.00
2023-03-30T03:20:52.480Z,10.00
2023-03-30T03:23:19.332Z,10.00
2023-03-30T03:25:46.096Z,10.00
2023-03-30T03:28:12.813Z,10.00
2023-03-30T03:30:39.780Z,10.00
2023-03-30T03:33:06.668Z,10.10
2023-03-30T03:35:33.536Z,10.10
2023-03-30T03:38:00.564Z,10.10
2023-03-30T03:40:27.549Z,10.00
2023-03-30T03:42:54.250Z,10.00
2023-03-30T03:45:21.058Z,10.00
2023-03-30T03:47:51.277Z,10.00
2023-03-30T03:50:18.749Z,10.10
2023-03-30T03:52:45.871Z,10.10
2023-03-30T03:55:13.000Z,10.00
2023-03-30T03:57:40.380Z,10.00
2023-03-30T04:00:17.008Z,10.00
2023-03-30T04:02:44.536Z,10.10
2023-03-30T04:05:11.832Z,10.10
2023-03-30T04:07:38.628Z,10.00
2023-03-30T04:10:07.285Z,10.00
2023-03-30T04:12:34.222Z,10.00
2023-03-30T04:15:01.148Z,10.00
2023-03-30T04:17:28.245Z,10.10
2023-03-30T04:19:55.618Z,10.00
2023-03-30T04:22:26.169Z,10.00
2023-03-30T04:24:53.004Z,9.90
2023-03-30T04:27:19.826Z,9.90
2023-03-30T04:29:46.641Z,10.00
2023-03-30T04:32:13.648Z,9.90
2023-03-30T04:34:43.263Z,9.90
2023-03-30T04:37:10.948Z,9.90
2023-03-30T04:39:38.708Z,9.90
2023-03-30T04:42:06.301Z,9.80
2023-03-30T04:44:33.096Z,9.90
2023-03-30T04:46:59.797Z,9.80
2023-03-30T04:49:26.665Z,9.80
2023-03-30T04:51:54.807Z,9.80
2023-03-30T04:54:21.690Z,9.70
2023-03-30T04:56:49.092Z,9.80
2023-03-30T04:59:16.259Z,9.70
2023-03-30T05:01:43.349Z,9.70
2023-03-30T05:04:10.205Z,9.70
2023-03-30T05:06:39.168Z,9.70
2023-03-30T05:09:06.226Z,9.70
2023-03-30T05:11:33.059Z,9.70
2023-03-30T05:13:59.834Z,9.80
2023-03-30T05:16:27.053Z,9.70
2023-03-30T05:18:54.583Z,9.70
2023-03-30T05:21:21.536Z,9.70
2023-03-30T05:23:48.402Z,9.70
2023-03-30T05:26:15.296Z,9.60
2023-03-30T05:28:43.179Z,9.60
2023-03-30T05:31:09.977Z,9.50
2023-03-30T05:33:36.730Z,9.60
2023-03-30T05:36:03.975Z,9.60
2023-03-30T05:38:30.749Z,9.60
2023-03-30T05:40:58.274Z,9.60
2023-03-30T05:43:25.050Z,9.50
2023-03-30T05:45:51.800Z,9.50
2023-03-30T05:48:18.788Z,9.50
2023-03-30T05:50:47.754Z,9.60
2023-03-30T05:53:14.687Z,9.60
2023-03-30T05:55:44.846Z,9.60
2023-03-30T05:58:11.816Z,9.50
2023-03-30T06:00:39.093Z,9.60
2023-03-30T06:03:05.894Z,9.70
2023-03-30T06:05:34.664Z,9.70
2023-03-30T06:08:01.457Z,10.10
2023-03-30T06:10:28.383Z,9.70
2023-03-30T06:12:55.324Z,9.70
2023-03-30T06:15:22.249Z,10.00
2023-03-30T06:17:49.349Z,9.80
2023-03-30T06:20:16.135Z,10.10
2023-03-30T06:22:43.053Z,9.80
2023-03-30T06:25:10.228Z,9.80
2023-03-30T06:27:37.450Z,9.90
2023-03-30T06:30:04.708Z,9.90
2023-03-30T06:32:31.677Z,9.90
2023-03-30T06:34:58.415Z,9.90
2023-03-30T06:37:25.310Z,10.10
2023-03-30T06:39:52.574Z,10.10
2023-03-30T06:42:19.381Z,10.40
2023-03-30T06:44:48.068Z,10.20
2023-03-30T06:47:16.278Z,10.20
2023-03-30T06:49:43.066Z,10.20
2023-03-30T06:52:11.529Z,10.30
2023-03-30T06:54:41.113Z,10.30
2023-03-30T06:57:08.281Z,10.30
2023-03-30T06:59:35.188Z,10.40
2023-03-30T07:02:03.430Z,10.40
2023-03-30T07:04:30.224Z,10.40
2023-03-30T07:06:57.884Z,10.50
2023-03-30T07:09:25.371Z,10.60
2023-03-30T07:11:53.880Z,10.70
2023-03-30T07:14:22.932Z,10.80
2023-03-30T07:16:49.837Z,10.80
2023-03-30T07:19:16.620Z,10.90
2023-03-30T07:21:43.652Z,10.90
2023-03-30T07:24:10.631Z,11.00
2023-03-30T07:26:37.569Z,11.00
2023-03-30T07:29:05.662Z,11.00
2023-03-30T07:31:32.533Z,11.00
2023-03-30T07:33:59.290Z,11.10
2023-03-30T07:36:26.342Z,11.20
2023-03-30T07:38:53.344Z,11.20
2023-03-30T07:41:20.157Z,11.30
2023-03-30T07:43:47.047Z,11.30
2023-03-30T07:46:14.437Z,11.30
2023-03-30T07:48:41.840Z,11.30
2023-03-30T07:51:13.794Z,11.40
2023-03-30T07:53:41.135Z,11.40
2023-03-30T07:56:08.131Z,11.80
2023-03-30T07:58:35.394Z,11.30
2023-03-30T08:01:03.703Z,11.30
2023-03-30T08:03:32.304Z,11.20
2023-03-30T08:06:04.068Z,11.20
2023-03-30T08:08:32.035Z,11.10
2023-03-30T08:10:59.105Z,11.20
2023-03-30T08:13:26.225Z,11.10
2023-03-30T08:15:54.549Z,11.10
2023-03-30T08:18:21.624Z,11.10
2023-03-30T08:20:51.858Z,11.10
2023-03-30T08:23:21.310Z,11.00
2023-03-30T08:25:52.313Z,11.10
2023-03-30T08:28:21.481Z,11.20
2023-03-30T08:30:48.695Z,11.20
2023-03-30T08:33:15.921Z,11.20
2023-03-30T08:35:49.549Z,11.20
2023-03-30T08:38:17.347Z,11.30
2023-03-30T08:40:46.919Z,11.50
2023-03-30T08:43:32.787Z,11.80
2023-03-30T08:46:01.026Z,11.50
2023-03-30T08:48:32.726Z,11.60
2023-03-30T08:51:24.823Z,11.60
2023-03-30T08:54:05.551Z,11.70
2023-03-30T08:56:40.054Z,11.60
2023-03-30T08:59:11.209Z,11.60
2023-03-30T09:02:13.820Z,11.60
2023-03-30T09:05:19.517Z,11.60
2023-03-30T09:08:04.853Z,11.60
2023-03-30T09:10:38.108Z,11.70
2023-03-30T09:13:06.704Z,11.80
2023-03-30T09:15:44.272Z,11.90
2023-03-30T09:18:20.402Z,12.10
2023-03-30T09:20:51.111Z,12.10
2023-03-30T09:23:18.721Z,12.10
2023-03-30T09:25:49.393Z,12.20
2023-03-30T09:28:38.930Z,12.00
2023-03-30T09:31:24.831Z,12.00
2023-03-30T09:34:07.169Z,11.90
2023-03-30T09:36:53.269Z,12.00
2023-03-30T09:39:21.981Z,11.90
2023-03-30T09:42:07.630Z,11.90
2023-03-30T09:45:15.299Z,11.80
2023-03-30T09:47:42.679Z,11.80
2023-03-30T09:50:14.948Z,11.70
2023-03-30T09:52:53.748Z,11.70
2023-03-30T09:55:36.547Z,11.80
2023-03-30T09:58:26.383Z,11.80
2023-03-30T10:01:12.526Z,11.90
2023-03-30T10:03:41.341Z,11.80
2023-03-30T10:06:09.657Z,11.70
2023-03-30T10:08:44.403Z,11.70
2023-03-30T10:11:11.727Z,11.70
2023-03-30T10:13:42.619Z,11.70
2023-03-30T10:16:23.276Z,11.60
2023-03-30T10:18:53.637Z,11.60
2023-03-30T10:21:27.031Z,11.60
2023-03-30T10:24:13.763Z,11.60
2023-03-30T10:26:45.646Z,11.60
2023-03-30T10:29:23.119Z,11.30
2023-03-30T10:32:00.295Z,11.30
2023-03-30T10:34:40.970Z,11.30
2023-03-30T10:37:13.617Z,11.10
2023-03-30T10:39:43.887Z,11.10
2023-03-30T10:42:16.947Z,11.30
2023-03-30T10:44:50.411Z,11.00
2023-03-30T10:47:38.633Z,10.90
2023-03-30T10:50:06.055Z,10.90
2023-03-30T10:53:05.112Z,11.00
2023-03-30T10:55:44.690Z,10.80
2023-03-30T10:58:30.401Z,10.80
2023-03-30T11:01:13.647Z,10.60
2023-03-30T11:03:45.752Z,10.50
2023-03-30T11:06:28.011Z,10.40
2023-03-30T11:08:58.799Z,10.40
2023-03-30T11:11:37.845Z,10.40
2023-03-30T11:14:12.742Z,10.40
2023-03-30T11:16:47.795Z,10.50
2023-03-30T11:19:21.677Z,10.50
2023-03-30T11:22:06.464Z,10.50
2023-03-30T11:24:34.332Z,10.60
2023-03-30T11:27:10.086Z,10.70
2023-03-30T11:29:56.793Z,10.80
2023-03-30T11:32:35.877Z,10.90
2023-03-30T11:35:20.739Z,10.90
2023-03-30T11:37:47.390Z,11.00
2023-03-30T11:40:17.514Z,10.90
2023-03-30T11:42:46.359Z,10.90
2023-03-30T11:45:31.957Z,10.80
2023-03-30T11:48:21.414Z,10.90
2023-03-30T11:51:15.209Z,10.90
2023-03-30T11:53:51.952Z,10.90
2023-03-30T11:56:47.995Z,10.80
2023-03-30T11:59:31.535Z,10.70
2023-03-30T12:02:47.882Z,10.70
2023-03-30T12:05:24.578Z,10.70
2023-03-30T12:08:18.998Z,10.70
2023-03-30T12:10:50.804Z,10.70
2023-03-30T12:13:19.651Z,10.60
2023-03-30T12:16:20.890Z,10.60
2023-03-30T12:19:15.513Z,10.60
2023-03-30T12:21:57.493Z,10.70
2023-03-30T12:24:50.066Z,10.70
2023-03-30T12:27:17.081Z,10.70
2023-03-30T12:32:28.793Z,10.80
2023-03-30T12:34:57.891Z,10.80
2023-03-30T12:37:35.172Z,10.90
2023-03-30T12:40:12.897Z,10.80
2023-03-30T12:42:46.636Z,10.90
2023-03-30T12:45:31.616Z,10.90
2023-03-30T12:48:03.035Z,10.90
2023-03-30T12:50:48.572Z,10.80
2023-03-30T12:53:24.472Z,10.80
2023-03-30T12:56:08.198Z,10.70
2023-03-30T12:59:00.198Z,10.70
2023-03-30T13:01:47.856Z,10.70
2023-03-30T13:04:23.818Z,10.70
2023-03-30T13:06:56.463Z,10.70
2023-03-30T13:09:26.529Z,10.60
2023-03-30T13:11:53.364Z,10.60
2023-03-30T13:14:27.910Z,10.50
2023-03-30T13:16:54.609Z,10.50
2023-03-30T13:19:28.780Z,10.50
2023-03-30T13:22:12.633Z,10.50
2023-03-30T13:24:52.119Z,10.50
2023-03-30T13:27:19.121Z,10.50
2023-03-30T13:30:01.049Z,10.50
2023-03-30T13:32:57.782Z,10.60
2023-03-30T13:36:05.191Z,10.60
2023-03-30T13:38:44.513Z,10.60
2023-03-30T13:41:14.370Z,10.70
2023-03-30T13:44:06.321Z,10.80
2023-03-30T13:46:37.965Z,10.70
2023-03-30T13:49:35.968Z,10.80
2023-03-30T13:52:16.110Z,10.90
2023-03-30T13:54:44.053Z,11.00
2023-03-30T13:57:13.785Z,11.20
2023-03-30T13:59:50.493Z,11.40
2023-03-30T14:02:19.409Z,13.10
2023-03-30T14:04:46.262Z,14.00
2023-03-30T14:07:22.195Z,14.70
2023-03-30T14:10:12.675Z,15.20
2023-03-30T14:12:41.152Z,16.30
2023-03-30T14:15:35.743Z,15.80
2023-03-30T14:18:04.686Z,15.00
2023-03-30T14:20:34.315Z,15.80
2023-03-30T14:23:03.436Z,16.90
2023-03-30T14:25:36.064Z,17.90
2023-03-30T14:28:14.865Z,17.80
2023-03-30T14:30:54.159Z,17.60
2023-03-30T14:33:21.567Z,17.50
2023-03-30T14:35:51.215Z,17.40
2023-03-30T14:38:24.736Z,17.20
2023-03-30T14:40:53.480Z,16.80
2023-03-30T14:43:27.344Z,16.30
2023-03-30T14:45:57.637Z,16.60
2023-03-30T14:48:35.225Z,16.90
2023-03-30T14:51:03.285Z,17.50
2023-03-30T14:53:31.653Z,17.40
2023-03-30T14:56:00.670Z,17.50
2023-03-30T14:58:31.689Z,17.90
2023-03-30T15:01:01.196Z,18.10
2023-03-30T15:03:33.937Z,18.10
2023-03-30T15:06:03.387Z,17.20
2023-03-30T15:08:37.600Z,17.00
2023-03-30T15:11:29.815Z,16.90
2023-03-30T15:13:58.751Z,16.70
2023-03-30T15:16:31.550Z,16.00
2023-03-30T15:19:30.067Z,15.80
2023-03-30T15:22:01.573Z,14.90
2023-03-30T15:24:36.088Z,14.70
2023-03-30T15:27:05.388Z,14.70
2023-03-30T15:29:32.948Z,14.70
2023-03-30T15:32:17.038Z,14.80
2023-03-30T15:35:16.217Z,14.40
2023-03-30T15:38:12.375Z,14.50
2023-03-30T15:40:41.912Z,14.20
2023-03-30T15:43:18.086Z,14.00
2023-03-30T15:45:52.823Z,13.80
2023-03-30T15:48:58.510Z,13.70
2023-03-30T15:51:37.921Z,13.30
2023-03-30T15:54:13.600Z,13.00
2023-03-30T15:56:49.344Z,12.70
2023-03-30T15:59:19.708Z,12.40
2023-03-30T16:01:54.702Z,12.20
2023-03-30T16:04:24.249Z,12.10
2023-03-30T16:06:52.964Z,12.00
2023-03-30T16:09:19.892Z,12.00
2023-03-30T16:11:47.009Z,11.80
2023-03-30T16:14:17.935Z,11.60
2023-03-30T16:16:47.732Z,11.50
2023-03-30T16:19:17.464Z,11.20
2023-03-30T16:21:45.517Z,11.20
2023-03-30T16:24:12.855Z,11.10
2023-03-30T16:26:39.787Z,11.10
2023-03-30T16:29:22.016Z,11.00
2023-03-30T16:31:50.986Z,11.00
2023-03-30T16:34:18.820Z,10.90
2023-03-30T16:36:46.139Z,10.70
2023-03-30T16:39:21.508Z,10.30
2023-03-30T16:41:49.588Z,10.30
2023-03-30T16:44:17.861Z,10.20
2023-03-30T16:46:45.007Z,10.30
2023-03-30T16:49:16.681Z,10.40
2023-03-30T16:51:44.574Z,10.50
2023-03-30T16:54:23.021Z,10.60
2023-03-30T16:56:56.836Z,10.70
2023-03-30T16:59:26.167Z,10.90
2023-03-30T17:01:52.981Z,11.00
2023-03-30T17:04:19.964Z,11.20
2023-03-30T17:06:46.819Z,11.10
2023-03-30T17:09:18.372Z,11.00
2023-03-30T17:11:46.776Z,10.90
2023-03-30T17:14:13.922Z,10.70
2023-03-30T17:16:41.367Z,10.70
2023-03-30T17:19:13.256Z,10.60
2023-03-30T17:21:43.869Z,10.50
2023-03-30T17:24:12.565Z,10.50
2023-03-30T17:26:39.843Z,10.50
2023-03-30T17:29:06.553Z,10.50
2023-03-30T17:31:33.488Z,12.30
2023-03-30T17:34:00.645Z,10.70
2023-03-30T17:36:28.731Z,10.30
2023-03-30T17:38:56.770Z,10.20
2023-03-30T17:41:23.685Z,10.20
2023-03-30T17:43:51.639Z,10.20
2023-03-30T17:46:20.356Z,10.10
2023-03-30T17:48:47.606Z,10.10
2023-03-30T17:51:14.372Z,10.10
2023-03-30T17:53:41.082Z,10.20
2023-03-30T17:56:10.533Z,10.20
2023-03-30T17:58:37.372Z,10.10
2023-03-30T18:01:07.513Z,10.10
2023-03-30T18:03:36.444Z,10.20
2023-03-30T18:06:03.237Z,10.10
2023-03-30T18:08:30.267Z,10.10
2023-03-30T18:10:59.127Z,10.10
2023-03-30T18:13:27.668Z,9.70
2023-03-30T18:15:56.666Z,9.70
2023-03-30T18:18:26.276Z,9.60
2023-03-30T18:20:57.097Z,9.50
2023-03-30T18:23:24.178Z,9.30
2023-03-30T18:25:51.484Z,9.20
2023-03-30T18:28:22.110Z,9.10
2023-03-30T18:30:49.840Z,9.10
2023-03-30T18:33:17.190Z,9.10
2023-03-30T18:35:46.752Z,9.00
2023-03-30T18:38:15.494Z,9.10
2023-03-30T18:40:45.492Z,9.10
2023-03-30T18:43:12.817Z,9.00
2023-03-30T18:45:48.630Z,9.00
2023-03-30T18:48:18.076Z,9.00
2023-03-30T18:50:47.267Z,9.00
2023-03-30T18:53:16.793Z,8.90
2023-03-30T18:55:45.919Z,8.90
2023-03-30T18:58:20.753Z,8.90
2023-03-30T19:00:48.993Z,8.80
2023-03-30T19:03:17.114Z,8.80
2023-03-30T19:05:44.882Z,8.80
2023-03-30T19:08:15.758Z,9.40
2023-03-30T19:10:44.434Z,8.70
2023-03-30T19:13:15.920Z,8.70
2023-03-30T19:15:43.409Z,8.70
2023-03-30T19:18:11.188Z,8.70
2023-03-30T19:20:41.119Z,8.70
2023-03-30T19:23:12.879Z,8.70
2023-03-30T19:25:40.471Z,8.70
2023-03-30T19:28:08.052Z,8.80
2023-03-30T19:30:38.991Z,8.80
2023-03-30T19:33:08.868Z,8.90
2023-03-30T19:35:36.094Z,8.70
2023-03-30T19:38:03.007Z,8.70
2023-03-30T19:40:31.341Z,8.80
2023-03-30T19:42:58.038Z,8.80
2023-03-30T19:45:24.889Z,8.90
2023-03-30T19:47:52.235Z,8.90
2023-03-30T19:50:20.863Z,8.90
2023-03-30T19:52:50.045Z,8.90
2023-03-30T19:55:19.309Z,8.80
2023-03-30T19:57:46.446Z,8.60
2023-03-30T20:00:16.262Z,8.60
2023-03-30T20:02:46.535Z,8.60
2023-03-30T20:05:13.450Z,8.60
2023-03-30T20:07:40.794Z,8.60
2023-03-30T20:10:10.860Z,8.70
2023-03-30T20:12:38.321Z,8.70
2023-03-30T20:15:06.651Z,8.60
2023-03-30T20:17:34.479Z,8.60
2023-03-30T20:20:06.756Z,8.60
2023-03-30T20:22:35.459Z,8.50
2023-03-30T20:25:04.964Z,8.40
2023-03-30T20:27:33.828Z,8.40
2023-03-30T20:30:01.000Z,8.30
2023-03-30T20:32:28.214Z,8.30
2023-03-30T20:34:55.000Z,8.30
2023-03-30T20:37:21.871Z,8.20
2023-03-30T20:39:50.703Z,8.10
2023-03-30T20:42:28.220Z,9.80
2023-03-30T20:44:55.827Z,7.70
2023-03-30T20:47:23.592Z,7.80
2023-03-30T20:49:50.448Z,8.50
2023-03-30T20:52:17.425Z,7.80
2023-03-30T20:54:45.058Z,7.80
2023-03-30T20:57:12.479Z,7.80
2023-03-30T20:59:39.758Z,7.70
2023-03-30T21:02:07.147Z,7.70
2023-03-30T21:04:34.029Z,7.70
2023-03-30T21:07:01.105Z,7.60
2023-03-30T21:09:28.082Z,7.60
2023-03-30T21:11:54.835Z,7.50
2023-03-30T21:14:23.753Z,7.40
2023-03-30T21:16:50.575Z,7.30
2023-03-30T21:19:17.380Z,7.30
2023-03-30T21:21:44.717Z,7.30
2023-03-30T21:24:11.727Z,7.40
2023-03-30T21:26:38.632Z,7.40
2023-03-30T21:29:06.002Z,7.50
2023-03-30T21:31:32.948Z,7.50
2023-03-30T21:34:00.185Z,7.50
2023-03-30T21:36:27.372Z,7.40
2023-03-30T21:38:56.137Z,7.30
2023-03-30T21:41:24.493Z,7.40
2023-03-30T21:43:51.578Z,7.40
2023-03-30T21:46:21.026Z,7.40
2023-03-30T21:48:51.204Z,7.50
2023-03-30T21:51:30.433Z,7.50
2023-03-30T21:53:58.274Z,7.50
2023-03-30T21:56:27.622Z,7.50
2023-03-30T21:58:54.531Z,7.50
2023-03-30T22:01:24.123Z,7.50
2023-03-30T22:03:52.068Z,7.40
2023-03-30T22:06:19.581Z,7.30
2023-03-30T22:08:46.999Z,7.30
2023-03-30T22:11:23.862Z,7.30
2023-03-30T22:13:52.200Z,7.30
2023-03-30T22:16:35.090Z,7.30
2023-03-30T22:19:02.560Z,7.30
2023-03-30T22:21:34.304Z,7.30
2023-03-30T22:24:02.974Z,7.30
2023-03-30T22:26:29.717Z,7.30
2023-03-30T22:28:56.808Z,7.30
2023-03-30T22:31:23.932Z,7.30
2023-03-30T22:33:52.333Z,8.10
2023-03-30T22:36:23.223Z,7.20
2023-03-30T22:38:51.587Z,7.10
2023-03-30T22:41:23.743Z,7.10
2023-03-30T22:43:52.872Z,7.20
2023-03-30T22:46:20.071Z,7.20
2023-03-30T22:48:49.212Z,7.20
2023-03-30T22:51:23.499Z,7.20
2023-03-30T22:53:50.515Z,7.20
2023-03-30T22:56:17.338Z,7.10
2023-03-30T22:58:44.126Z,7.20
2023-03-30T23:01:12.136Z,7.30
2023-03-30T23:03:39.289Z,7.30
2023-03-30T23:06:06.668Z,7.40
2023-03-30T23:08:33.868Z,7.40
2023-03-30T23:11:04.962Z,7.40
2023-03-30T23:13:37.243Z,7.40
2023-03-30T23:16:07.384Z,7.20
2023-03-30T23:18:35.281Z,7.30
2023-03-30T23:21:06.257Z,7.30
2023-03-30T23:23:35.011Z,7.40
2023-03-30T23:26:02.894Z,7.40
2023-03-30T23:28:31.537Z,7.40
2023-03-30T23:30:58.370Z,7.40
2023-03-30T23:33:25.356Z,7.40
2023-03-30T23:35:53.290Z,7.30
2023-03-30T23:38:20.996Z,7.30
2023-03-30T23:40:47.783Z,7.20
2023-03-30T23:43:14.569Z,7.20
2023-03-30T23:45:43.511Z,7.20
2023-03-30T23:48:10.599Z,7.20
2023-03-30T23:50:37.392Z,7.20
2023-03-30T23:53:04.275Z,7.20
2023-03-30T23:55:31.286Z,7.20
2023-03-30T23:57:57.970Z,7.20
